Time;durP1;ratioP1;P1;durP2;ratioP2;P2;SDS_P1;SDS_P2;PMS_P1;PMS_P2;Temp;Humidity;BMP_temperature;BMP_pressure;BME280_temperature;BME280_humidity;BME280_pressure;Samples;Min_cycle;Max_cycle;Signal;HPM_P1;HPM_P2
2023/04/09 00:02:00;;;;;;;59.72;31.58;;;9.30;99.90;;;;;;5036286;28;20057;-64
2023/04/09 00:04:26;;;;;;;54.65;30.27;;;9.40;99.90;;;;;;5036206;28;20053;-65
2023/04/09 00:06:52;;;;;;;52.58;29.60;;;9.40;99.90;;;;;;5035987;28;20118;-65
2023/04/09 00:09:19;;;;;;;50.72;30.08;;;9.40;99.90;;;;;;5017691;28;20059;-64
2023/04/09 00:11:46;;;;;;;56.25;30.33;;;9.30;99.90;;;;;;4999937;28;20619;-64
2023/04/09 00:14:15;;;;;;;50.83;29.33;;;9.30;99.90;;;;;;5016292;28;20127;-64
2023/04/09 00:16:41;;;;;;;52.25;29.95;;;9.30;99.90;;;;;;5016004;28;20461;-64
2023/04/09 00:19:08;;;;;;;54.40;29.23;;;9.30;99.90;;;;;;5031544;28;20446;-64
2023/04/09 00:21:34;;;;;;;48.83;28.63;;;9.30;99.90;;;;;;5053776;28;20057;-65
2023/04/09 00:24:00;;;;;;;53.72;31.83;;;9.30;99.90;;;;;;5053887;28;20467;-63
2023/04/09 00:26:26;;;;;;;52.72;29.15;;;9.30;99.90;;;;;;5053448;28;20433;-63
2023/04/09 00:28:54;;;;;;;49.75;29.50;;;9.30;99.90;;;;;;5037236;28;20108;-62
2023/04/09 00:31:20;;;;;;;49.80;29.75;;;9.30;99.90;;;;;;4999456;28;20120;-63
2023/04/09 00:33:46;;;;;;;49.40;27.42;;;9.30;99.90;;;;;;5033515;28;20084;-62
2023/04/09 00:36:12;;;;;;;50.78;28.38;;;9.30;99.90;;;;;;5015846;28;20060;-63
2023/04/09 00:38:39;;;;;;;51.70;29.52;;;9.30;99.90;;;;;;5046033;28;20060;-63
2023/04/09 00:41:06;;;;;;;49.00;28.15;;;9.20;99.90;;;;;;5053411;28;20368;-62
2023/04/09 00:43:32;;;;;;;48.15;30.05;;;9.20;99.90;;;;;;5035903;28;20049;-62
2023/04/09 00:45:59;;;;;;;50.65;30.13;;;9.20;99.90;;;;;;5035668;28;20064;-62
2023/04/09 00:48:26;;;;;;;52.15;29.88;;;9.20;99.90;;;;;;5042462;28;20460;-63
2023/04/09 00:50:53;;;;;;;48.72;28.63;;;9.20;99.90;;;;;;5032552;28;20397;-63
2023/04/09 00:53:19;;;;;;;53.05;31.02;;;9.20;99.90;;;;;;5033405;28;20080;-63
2023/04/09 00:55:46;;;;;;;48.10;28.73;;;9.30;99.90;;;;;;5032911;28;20088;-63
2023/04/09 00:58:13;;;;;;;45.13;26.30;;;9.20;99.90;;;;;;5041904;28;20046;-63
2023/04/09 01:00:39;;;;;;;46.33;27.25;;;9.20;99.90;;;;;;5032660;28;20111;-62
2023/04/09 01:03:09;;;;;;;43.33;25.67;;;9.10;99.90;;;;;;5032822;28;20092;-63
2023/04/09 01:06:01;;;;;;;42.72;24.55;;;9.10;99.90;;;;;;5015520;28;20501;-62
2023/04/09 01:09:02;;;;;;;42.15;25.80;;;9.10;99.90;;;;;;5017567;28;20465;-63
2023/04/09 01:11:41;;;;;;;41.10;24.33;;;9.00;99.90;;;;;;5052714;28;20133;-63
2023/04/09 01:14:30;;;;;;;40.75;25.40;;;9.10;99.90;;;;;;5052470;28;20084;-64
2023/04/09 01:17:04;;;;;;;44.70;25.83;;;9.10;99.90;;;;;;5052389;28;20484;-63
2023/04/09 01:20:16;;;;;;;39.55;24.00;;;9.00;99.90;;;;;;5032736;28;20128;-62
2023/04/09 01:23:04;;;;;;;37.35;23.52;;;9.10;99.90;;;;;;4951951;28;20079;-63
2023/04/09 01:25:43;;;;;;;37.65;22.90;;;9.10;99.90;;;;;;5028547;28;20388;-63
2023/04/09 01:28:17;;;;;;;40.92;23.65;;;9.10;99.90;;;;;;5022651;28;20109;-63
2023/04/09 01:30:48;;;;;;;36.80;22.23;;;9.10;99.90;;;;;;5051936;28;20049;-63
2023/04/09 01:33:16;;;;;;;38.47;22.88;;;9.10;99.90;;;;;;5052291;28;20072;-64
2023/04/09 01:35:45;;;;;;;38.03;23.65;;;9.10;99.90;;;;;;5052075;28;20059;-63
2023/04/09 01:38:13;;;;;;;40.08;25.00;;;9.10;99.90;;;;;;5026130;28;20064;-63
2023/04/09 01:40:43;;;;;;;39.28;23.05;;;9.10;99.90;;;;;;5014116;28;20172;-64
2023/04/09 01:43:10;;;;;;;40.17;23.05;;;9.00;99.90;;;;;;5015092;28;20052;-63
2023/04/09 01:45:37;;;;;;;41.22;23.42;;;9.00;99.90;;;;;;5031979;28;20073;-63
2023/04/09 01:48:04;;;;;;;39.28;22.50;;;9.00;99.90;;;;;;5025085;28;20096;-64
2023/04/09 01:50:31;;;;;;;39.47;23.23;;;9.00;99.90;;;;;;5011877;28;20086;-63
2023/04/09 01:53:00;;;;;;;37.85;24.20;;;9.00;99.90;;;;;;4994607;28;20076;-64
2023/04/09 01:55:26;;;;;;;41.78;24.27;;;9.00;99.90;;;;;;5012377;28;20057;-63
2023/04/09 01:58:02;;;;;;;43.80;24.25;;;9.00;99.90;;;;;;5017146;28;20092;-63
2023/04/09 02:00:38;;;;;;;40.97;23.13;;;9.00;99.90;;;;;;5014164;28;20051;-65
2023/04/09 02:03:34;;;;;;;38.80;22.63;;;9.00;99.90;;;;;;5014756;28;20053;-64
2023/04/09 02:06:13;;;;;;;;;;;9.00;99.90;;;;;;5014807;28;20081;-64
2023/04/09 02:08:45;;;;;;;40.22;22.45;;;9.00;99.90;;;;;;5019548;28;19921;-63
2023/04/09 02:11:13;;;;;;;43.53;24.25;;;8.90;99.90;;;;;;4994699;28;20077;-64
2023/04/09 02:13:41;;;;;;;42.47;23.25;;;8.90;99.90;;;;;;4994839;28;20462;-64
2023/04/09 02:16:12;;;;;;;43.95;24.75;;;8.90;99.90;;;;;;5012004;28;20096;-63
2023/04/09 02:18:38;;;;;;;49.40;26.17;;;9.00;99.90;;;;;;5022946;28;20049;-63
2023/04/09 02:21:05;;;;;;;45.92;26.98;;;8.90;99.90;;;;;;5031735;28;20042;-64
2023/04/09 02:23:32;;;;;;;44.00;25.30;;;8.90;99.90;;;;;;5031799;28;20069;-65
2023/04/09 02:25:58;;;;;;;43.78;24.67;;;8.80;99.90;;;;;;5014578;28;20053;-64
2023/04/09 02:28:25;;;;;;;45.90;29.05;;;8.90;99.90;;;;;;5022187;28;20124;-64
2023/04/09 02:30:51;;;;;;;46.08;26.92;;;8.80;99.90;;;;;;5011924;28;20049;-64
2023/04/09 02:33:18;;;;;;;46.88;26.58;;;8.80;99.90;;;;;;5012621;28;20085;-64
2023/04/09 02:35:44;;;;;;;42.28;25.08;;;8.80;99.90;;;;;;5012137;28;20104;-64
2023/04/09 02:38:14;;;;;;;47.97;26.45;;;8.70;99.90;;;;;;5001757;28;20060;-63
2023/04/09 02:40:41;;;;;;;42.75;25.48;;;8.80;99.90;;;;;;5023853;28;20377;-63
2023/04/09 02:43:08;;;;;;;41.92;24.20;;;8.70;99.90;;;;;;4994323;28;20054;-64
2023/04/09 02:45:35;;;;;;;40.90;23.90;;;8.70;99.90;;;;;;5012157;28;20442;-63
2023/04/09 02:48:01;;;;;;;39.70;22.58;;;8.70;99.90;;;;;;5010843;28;20046;-63
2023/04/09 02:50:27;;;;;;;37.95;21.00;;;8.70;99.90;;;;;;5011124;28;20054;-63
2023/04/09 02:52:57;;;;;;;39.67;22.67;;;8.70;99.90;;;;;;5015523;28;20060;-64
2023/04/09 02:55:23;;;;;;;41.40;24.48;;;8.70;99.90;;;;;;5015363;28;20064;-64
2023/04/09 02:57:53;;;;;;;38.17;22.75;;;8.70;99.90;;;;;;5015090;28;20470;-64
2023/04/09 03:00:19;;;;;;;39.13;22.67;;;8.60;99.90;;;;;;5015458;28;20046;-63
2023/04/09 03:02:45;;;;;;;37.72;23.65;;;8.60;99.90;;;;;;5015559;28;20414;-64
2023/04/09 03:05:12;;;;;;;36.30;21.25;;;8.60;99.90;;;;;;4998128;28;20470;-64
2023/04/09 03:07:38;;;;;;;39.72;21.98;;;8.60;99.90;;;;;;5015125;28;20046;-63
2023/04/09 03:10:11;;;;;;;39.03;21.95;;;8.50;99.90;;;;;;5015419;28;20072;-62
2023/04/09 03:12:38;;;;;;;37.20;20.30;;;8.50;99.90;;;;;;5014738;28;20482;-63
2023/04/09 03:15:11;;;;;;;39.47;22.88;;;8.60;99.90;;;;;;5015192;28;20081;-63
2023/04/09 03:17:38;;;;;;;38.05;22.50;;;8.50;99.90;;;;;;5014776;28;20206;-63
2023/04/09 03:20:08;;;;;;;36.55;20.85;;;8.50;99.90;;;;;;5014657;28;20077;-61
2023/04/09 03:22:36;;;;;;;40.40;22.58;;;8.60;99.90;;;;;;5015061;28;20141;-61
2023/04/09 03:25:03;;;;;;;37.63;21.70;;;8.60;99.90;;;;;;5015311;28;20132;-63
2023/04/09 03:27:29;;;;;;;38.85;23.70;;;8.60;99.90;;;;;;5014649;28;20049;-62
2023/04/09 03:30:02;;;;;;;39.38;21.20;;;8.50;99.90;;;;;;5014726;28;20085;-63
2023/04/09 03:32:30;;;;;;;38.65;21.05;;;8.50;99.90;;;;;;4997247;28;20121;-63
2023/04/09 03:34:56;;;;;;;35.13;20.63;;;8.50;99.90;;;;;;5014629;28;20085;-63
2023/04/09 03:37:22;;;;;;;35.47;20.88;;;8.50;99.90;;;;;;5014552;28;20465;-61
2023/04/09 03:39:48;;;;;;;36.17;21.05;;;8.50;99.90;;;;;;5014292;28;20060;-62
2023/04/09 03:42:15;;;;;;;39.72;23.65;;;8.50;99.90;;;;;;5034468;28;20354;-62
2023/04/09 03:44:41;;;;;;;37.53;20.35;;;8.40;99.90;;;;;;5016954;28;20042;-62
2023/04/09 03:47:08;;;;;;;36.70;21.27;;;8.50;99.90;;;;;;5016743;28;20140;-59
2023/04/09 03:49:35;;;;;;;38.65;22.40;;;8.50;99.90;;;;;;4998150;28;20049;-61
2023/04/09 03:52:01;;;;;;;37.47;21.83;;;8.40;99.90;;;;;;5014711;28;20402;-62
2023/04/09 03:54:30;;;;;;;38.60;22.08;;;8.40;99.90;;;;;;5014123;28;20473;-61
2023/04/09 03:57:02;;;;;;;38.78;22.52;;;8.40;99.90;;;;;;5014341;28;20155;-63
2023/04/09 03:59:28;;;;;;;35.78;21.27;;;8.50;99.90;;;;;;5030577;28;20377;-60
2023/04/09 04:01:55;;;;;;;38.10;22.48;;;8.50;99.90;;;;;;5033767;28;20091;-61
2023/04/09 04:04:21;;;;;;;37.33;21.52;;;8.50;99.90;;;;;;5034142;28;20050;-60
2023/04/09 04:06:47;;;;;;;39.90;22.55;;;8.60;99.90;;;;;;5033975;28;20068;-64
2023/04/09 04:09:16;;;;;;;35.85;21.70;;;8.50;99.90;;;;;;5017890;28;20140;-62
2023/04/09 04:11:42;;;;;;;37.97;21.88;;;8.50;99.90;;;;;;5013706;28;20401;-63
2023/04/09 04:14:08;;;;;;;40.88;21.40;;;8.50;99.90;;;;;;5014100;28;20101;-60
2023/04/09 04:16:34;;;;;;;42.38;23.45;;;8.50;99.90;;;;;;5014347;28;20073;-63
2023/04/09 04:19:01;;;;;;;36.85;21.50;;;8.50;99.90;;;;;;5026925;28;20045;-63
2023/04/09 04:21:32;;;;;;;38.75;22.17;;;8.50;99.90;;;;;;5033756;28;20099;-61
2023/04/09 04:23:58;;;;;;;42.33;22.50;;;8.50;99.90;;;;;;5033529;28;20045;-61
2023/04/09 04:26:24;;;;;;;37.63;21.52;;;8.50;99.90;;;;;;5033647;28;20049;-62
2023/04/09 04:28:50;;;;;;;38.25;22.27;;;8.50;99.90;;;;;;5021004;28;20073;-63
2023/04/09 04:31:17;;;;;;;41.28;24.17;;;8.50;99.90;;;;;;5014805;28;20060;-62
2023/04/09 04:33:44;;;;;;;42.70;23.10;;;8.50;99.90;;;;;;5014307;28;20058;-63
2023/04/09 04:36:11;;;;;;;40.00;22.23;;;8.50;99.90;;;;;;5013769;28;20086;-61
2023/04/09 04:38:40;;;;;;;43.78;25.13;;;8.50;99.90;;;;;;5023226;28;20072;-62
2023/04/09 04:41:06;;;;;;;42.05;24.95;;;8.50;99.90;;;;;;5033081;28;20064;-62
2023/04/09 04:43:33;;;;;;;41.42;23.02;;;8.50;99.90;;;;;;5015785;28;20052;-62
2023/04/09 04:46:06;;;;;;;41.63;23.58;;;8.50;99.90;;;;;;5033203;28;20136;-62
2023/04/09 04:48:33;;;;;;;39.25;22.90;;;8.50;99.90;;;;;;5004506;28;20042;-63
2023/04/09 04:51:04;;;;;;;37.78;23.83;;;8.50;99.90;;;;;;5013224;28;20053;-61
2023/04/09 04:53:30;;;;;;;40.75;23.45;;;8.50;99.90;;;;;;5013054;28;20089;-61
2023/04/09 04:55:56;;;;;;;40.22;23.02;;;8.50;99.90;;;;;;5013402;28;20058;-62
2023/04/09 04:58:27;;;;;;;41.67;23.98;;;8.50;99.90;;;;;;5005419;28;20082;-63
2023/04/09 05:00:53;;;;;;;42.35;24.98;;;8.60;99.90;;;;;;4976010;28;20061;-62
2023/04/09 05:03:19;;;;;;;43.33;24.23;;;8.60;99.90;;;;;;4993792;28;20301;-63
2023/04/09 05:05:46;;;;;;;40.60;24.50;;;8.50;99.90;;;;;;4993205;28;20082;-61
2023/04/09 05:08:12;;;;;;;41.08;23.38;;;8.60;99.90;;;;;;5006336;28;20060;-62
2023/04/09 05:10:45;;;;;;;42.92;24.58;;;8.60;99.90;;;;;;5032345;28;20050;-61
2023/04/09 05:13:11;;;;;;;41.00;22.73;;;8.60;99.90;;;;;;5032280;28;20049;-62
2023/04/09 05:15:45;;;;;;;38.83;23.13;;;8.50;99.90;;;;;;5032480;28;20049;-62
2023/04/09 05:18:11;;;;;;;35.88;21.58;;;8.60;99.90;;;;;;5004886;28;20129;-61
2023/04/09 05:20:44;;;;;;;35.70;21.55;;;8.50;99.90;;;;;;5011069;28;20363;-61
2023/04/09 05:23:11;;;;;;;34.38;21.27;;;8.60;99.90;;;;;;5012870;28;20054;-62
2023/04/09 05:25:44;;;;;;;38.60;22.30;;;8.50;99.90;;;;;;5013147;28;20081;-61
2023/04/09 05:28:17;;;;;;;35.28;20.40;;;8.50;99.90;;;;;;5014050;28;20053;-63
2023/04/09 05:30:46;;;;;;;37.42;22.50;;;8.50;99.90;;;;;;5032283;28;20362;-62
2023/04/09 05:33:13;;;;;;;36.60;21.02;;;8.50;99.90;;;;;;5032541;28;20081;-62
2023/04/09 05:35:39;;;;;;;37.40;21.33;;;8.50;99.90;;;;;;5015020;28;20088;-61
2023/04/09 05:38:06;;;;;;;35.60;20.50;;;8.50;99.90;;;;;;5009128;28;20116;-63
2023/04/09 05:40:32;;;;;;;38.30;21.02;;;8.50;99.90;;;;;;5017450;28;20073;-62
2023/04/09 05:42:58;;;;;;;37.30;22.20;;;8.50;99.90;;;;;;5032377;28;20049;-63
2023/04/09 05:45:27;;;;;;;35.25;21.27;;;8.60;99.90;;;;;;5031984;28;20381;-62
2023/04/09 05:47:53;;;;;;;36.72;21.52;;;8.50;99.90;;;;;;5030424;28;20115;-63
2023/04/09 05:50:22;;;;;;;38.05;22.80;;;8.60;99.90;;;;;;5031897;28;20081;-62
2023/04/09 05:52:48;;;;;;;36.80;21.45;;;8.60;99.90;;;;;;5015071;28;20069;-63
2023/04/09 05:55:14;;;;;;;34.85;21.00;;;8.50;99.90;;;;;;5031905;28;20049;-63
2023/04/09 05:57:41;;;;;;;36.20;20.73;;;8.50;99.90;;;;;;5031213;28;20045;-61
2023/04/09 06:00:07;;;;;;;35.25;20.65;;;8.60;99.90;;;;;;5031405;28;20112;-61
2023/04/09 06:02:35;;;;;;;32.60;20.90;;;8.60;99.90;;;;;;5032154;28;20053;-61
2023/04/09 06:05:01;;;;;;;32.90;21.20;;;8.60;99.90;;;;;;5031898;28;20078;-63
2023/04/09 06:07:28;;;;;;;32.10;20.67;;;8.60;99.90;;;;;;5030743;28;20089;-62
2023/04/09 06:09:55;;;;;;;32.65;22.05;;;8.60;99.90;;;;;;5031019;28;20609;-63
2023/04/09 06:12:21;;;;;;;32.58;20.08;;;8.60;99.90;;;;;;5031929;28;20045;-61
2023/04/09 06:14:49;;;;;;;31.58;19.75;;;8.60;99.90;;;;;;5034196;28;20324;-63
2023/04/09 06:17:15;;;;;;;32.25;19.88;;;8.70;99.90;;;;;;5035984;28;20053;-63
2023/04/09 06:19:41;;;;;;;33.80;19.20;;;8.60;99.90;;;;;;5039271;28;20124;-63
2023/04/09 06:22:11;;;;;;;28.45;18.27;;;8.70;99.90;;;;;;5037498;28;20473;-62
2023/04/09 06:24:37;;;;;;;33.95;21.95;;;8.70;99.90;;;;;;5028892;28;20076;-62
2023/04/09 06:27:04;;;;;;;32.20;20.55;;;8.70;99.90;;;;;;5039897;28;20140;-63
2023/04/09 06:29:31;;;;;;;32.40;19.90;;;8.70;99.90;;;;;;5032295;28;20073;-62
2023/04/09 06:31:58;;;;;;;30.48;18.67;;;8.80;99.90;;;;;;5017901;28;20437;-60
2023/04/09 06:34:26;;;;;;;29.63;18.73;;;8.80;99.90;;;;;;5033798;28;20037;-62
2023/04/09 06:36:52;;;;;;;32.08;19.50;;;8.80;99.90;;;;;;5034374;28;20080;-61
2023/04/09 06:39:20;;;;;;;34.97;21.05;;;8.90;99.90;;;;;;5033088;28;20057;-60
2023/04/09 06:41:46;;;;;;;33.83;19.45;;;8.80;99.90;;;;;;5035108;28;20049;-61
2023/04/09 06:44:12;;;;;;;32.67;21.10;;;8.90;99.90;;;;;;5016738;28;20048;-60
2023/04/09 06:46:39;;;;;;;30.63;19.38;;;9.00;99.90;;;;;;5034181;28;20627;-61
2023/04/09 06:49:09;;;;;;;31.40;21.08;;;8.90;99.90;;;;;;5037962;28;20072;-61
2023/04/09 06:51:35;;;;;;;31.05;18.50;;;9.00;99.90;;;;;;5044168;28;20042;-62
2023/04/09 06:54:02;;;;;;;29.85;19.88;;;9.00;99.90;;;;;;5044862;28;20049;-62
2023/04/09 06:56:28;;;;;;;29.15;18.30;;;9.00;99.90;;;;;;5045488;28;20476;-62
2023/04/09 06:58:54;;;;;;;29.48;18.75;;;9.00;99.90;;;;;;5033942;28;20351;-62
2023/04/09 07:01:21;;;;;;;30.40;20.27;;;9.00;99.90;;;;;;5019361;28;20049;-60
2023/04/09 07:03:48;;;;;;;32.97;20.35;;;9.10;99.90;;;;;;5035190;28;20053;-62
2023/04/09 07:06:14;;;;;;;29.83;18.10;;;9.10;99.90;;;;;;5035264;28;20063;-62
2023/04/09 07:08:40;;;;;;;30.73;20.00;;;9.10;99.90;;;;;;5016565;28;20128;-63
2023/04/09 07:11:07;;;;;;;29.50;19.23;;;9.10;99.90;;;;;;5035173;28;20381;-60
2023/04/09 07:13:33;;;;;;;30.33;20.73;;;9.20;99.90;;;;;;5045359;28;20037;-61
2023/04/09 07:16:07;;;;;;;31.08;20.20;;;9.20;99.90;;;;;;5046036;28;20052;-61
2023/04/09 07:18:33;;;;;;;29.23;20.20;;;9.10;99.90;;;;;;5045407;28;20052;-62
2023/04/09 07:21:07;;;;;;;30.92;19.50;;;9.20;99.90;;;;;;5017433;28;20041;-62
2023/04/09 07:23:35;;;;;;;29.05;19.25;;;9.20;99.90;;;;;;5034885;28;20061;-62
2023/04/09 07:26:03;;;;;;;31.60;20.85;;;9.30;99.90;;;;;;5034623;28;20050;-61
2023/04/09 07:28:29;;;;;;;32.03;19.60;;;9.30;99.90;;;;;;5033782;28;20045;-61
2023/04/09 07:30:55;;;;;;;29.92;19.02;;;9.30;99.90;;;;;;5036289;28;20052;-63
2023/04/09 07:33:22;;;;;;;33.67;19.20;;;9.30;99.90;;;;;;5052947;28;20049;-62
2023/04/09 07:35:48;;;;;;;33.25;19.67;;;9.30;99.90;;;;;;5052835;28;20068;-62
2023/04/09 07:38:21;;;;;;;30.67;18.17;;;9.40;99.90;;;;;;5048778;28;20538;-62
2023/04/09 07:40:48;;;;;;;27.98;18.38;;;9.50;99.90;;;;;;5041301;28;20052;-63
2023/04/09 07:43:20;;;;;;;31.60;19.33;;;9.50;99.90;;;;;;5041059;28;20385;-63
2023/04/09 07:45:52;;;;;;;28.85;18.20;;;9.50;99.90;;;;;;5043898;28;20049;-62
2023/04/09 07:48:20;;;;;;;29.60;19.50;;;9.60;99.90;;;;;;5039022;28;20067;-62
2023/04/09 07:50:47;;;;;;;28.10;17.05;;;9.60;99.90;;;;;;5024938;28;20057;-62
2023/04/09 07:53:14;;;;;;;27.05;17.77;;;9.60;99.90;;;;;;5044453;28;20372;-62
2023/04/09 07:55:40;;;;;;;32.03;19.67;;;9.60;99.90;;;;;;5043042;28;20356;-61
2023/04/09 07:58:06;;;;;;;28.73;18.10;;;9.70;99.90;;;;;;5022597;28;20069;-61
2023/04/09 08:00:33;;;;;;;29.85;18.55;;;9.70;99.90;;;;;;5042922;28;20045;-63
2023/04/09 08:03:00;;;;;;;27.90;18.80;;;9.80;99.90;;;;;;5572936;22;20169;-64
2023/04/09 08:05:29;;;;;;;30.15;19.05;;;9.90;99.90;;;;;;5071303;28;20037;-65
2023/04/09 08:07:55;;;;;;;27.65;19.13;;;10.00;99.90;;;;;;5071128;28;20706;-65
2023/04/09 08:10:22;;;;;;;28.23;18.23;;;10.00;99.90;;;;;;5072309;28;20052;-65
2023/04/09 08:12:49;;;;;;;29.48;19.88;;;10.00;99.90;;;;;;5071408;28;20122;-64
2023/04/09 08:15:15;;;;;;;30.13;18.90;;;10.10;99.90;;;;;;5072092;28;20052;-64
2023/04/09 08:17:48;;;;;;;31.20;19.60;;;10.10;99.90;;;;;;5072598;28;20040;-65
2023/04/09 08:20:15;;;;;;;30.02;20.42;;;10.10;99.90;;;;;;5055312;28;20072;-65
2023/04/09 08:22:42;;;;;;;28.65;19.33;;;10.20;99.90;;;;;;5056138;28;20047;-65
2023/04/09 08:25:11;;;;;;;28.13;17.90;;;10.30;99.90;;;;;;5074706;28;20037;-65
2023/04/09 08:27:38;;;;;;;26.95;18.23;;;10.30;99.90;;;;;;5073513;28;20080;-64
2023/04/09 08:30:05;;;;;;;28.17;18.77;;;10.40;99.90;;;;;;5072552;28;20044;-65
2023/04/09 08:32:31;;;;;;;30.40;19.95;;;10.40;99.90;;;;;;5072466;28;20091;-64
2023/04/09 08:34:58;;;;;;;26.73;18.50;;;10.40;99.90;;;;;;5063684;28;20064;-65
2023/04/09 08:37:24;;;;;;;27.75;18.92;;;10.60;99.90;;;;;;5072477;28;20053;-65
2023/04/09 08:39:50;;;;;;;28.30;18.10;;;10.70;99.90;;;;;;5069097;28;20060;-65
2023/04/09 08:42:19;;;;;;;28.45;18.88;;;10.90;99.90;;;;;;5062975;28;20036;-65
2023/04/09 08:44:46;;;;;;;25.75;17.40;;;11.00;99.90;;;;;;5065790;28;20056;-65
2023/04/09 08:47:12;;;;;;;29.25;18.45;;;11.10;99.90;;;;;;5070626;28;20068;-64
2023/04/09 08:49:40;;;;;;;26.63;18.00;;;11.20;99.90;;;;;;5065215;28;20072;-64
2023/04/09 08:52:06;;;;;;;27.35;20.08;;;11.30;99.90;;;;;;5053396;28;20068;-64
2023/04/09 08:54:33;;;;;;;26.20;18.77;;;11.40;99.90;;;;;;5052832;28;20435;-64
2023/04/09 08:57:03;;;;;;;27.70;19.95;;;11.30;99.90;;;;;;5052715;28;20422;-64
2023/04/09 08:59:29;;;;;;;25.98;17.48;;;11.50;99.90;;;;;;5069001;28;20049;-64
2023/04/09 09:02:11;;;;;;;26.80;18.98;;;11.60;99.90;;;;;;5073673;28;20088;-66
2023/04/09 09:04:49;;;;;;;28.02;18.55;;;11.90;99.90;;;;;;5072599;28;20076;-64
2023/04/09 09:07:17;;;;;;;29.77;19.98;;;11.90;99.90;;;;;;5484488;22;20464;-66
2023/04/09 09:09:54;;;;;;;29.33;18.83;;;12.00;99.90;;;;;;5050843;28;20040;-65
2023/04/09 09:12:38;;;;;;;26.42;19.02;;;12.10;99.90;;;;;;5032534;28;20045;-66
2023/04/09 09:15:27;;;;;;;30.30;19.33;;;12.30;99.90;;;;;;5053015;28;20414;-66
2023/04/09 09:17:58;;;;;;;29.90;18.60;;;12.50;99.90;;;;;;5050174;28;20439;-66
2023/04/09 09:20:26;;;;;;;27.60;18.90;;;12.50;99.90;;;;;;5052619;28;20060;-66
2023/04/09 09:22:54;;;;;;;27.75;18.15;;;12.70;99.90;;;;;;5051152;28;20068;-65
2023/04/09 09:25:24;;;;;;;29.10;19.92;;;12.70;99.90;;;;;;5052287;28;20452;-64
2023/04/09 09:27:52;;;;;;;29.92;19.83;;;12.70;99.90;;;;;;5052395;28;20049;-65
2023/04/09 09:30:23;;;;;;;31.80;20.63;;;12.60;99.90;;;;;;5053138;28;20064;-65
2023/04/09 09:33:04;;;;;;;29.75;20.55;;;12.80;99.90;;;;;;5035537;28;20049;-65
2023/04/09 09:35:45;;;;;;;29.23;20.65;;;12.80;99.90;;;;;;5053130;28;20053;-65
2023/04/09 09:38:11;;;;;;;30.27;21.08;;;12.80;99.90;;;;;;5034756;28;20072;-64
2023/04/09 09:40:37;;;;;;;28.15;19.40;;;12.80;99.90;;;;;;5053106;28;20080;-65
2023/04/09 09:43:03;;;;;;;28.83;20.15;;;12.90;99.90;;;;;;5053268;28;20064;-65
2023/04/09 09:45:31;;;;;;;30.45;20.83;;;12.90;99.90;;;;;;5053131;28;20476;-64
2023/04/09 09:48:02;;;;;;;27.30;18.95;;;12.90;99.90;;;;;;5051581;28;20045;-65
2023/04/09 09:50:31;;;;;;;27.40;19.55;;;13.10;99.90;;;;;;5052735;28;20512;-66
2023/04/09 09:53:04;;;;;;;28.35;18.95;;;13.20;99.90;;;;;;5035074;28;20090;-65
2023/04/09 09:55:32;;;;;;;28.30;19.60;;;13.40;99.90;;;;;;5034662;28;20139;-65
2023/04/09 09:58:02;;;;;;;28.02;18.70;;;13.50;99.90;;;;;;5032840;28;20464;-65
2023/04/09 10:00:31;;;;;;;29.35;20.58;;;13.60;99.90;;;;;;5034968;28;20055;-65
2023/04/09 10:03:18;;;;;;;27.20;19.20;;;13.60;99.90;;;;;;5035059;28;20048;-65
2023/04/09 10:05:45;;;;;;;27.02;17.02;;;13.60;99.90;;;;;;5052632;28;20059;-66
2023/04/09 10:08:11;;;;;;;25.77;17.15;;;13.60;99.90;;;;;;5033768;28;20056;-65
2023/04/09 10:10:41;;;;;;;26.23;18.05;;;13.70;99.90;;;;;;5034961;28;20076;-66
2023/04/09 10:13:14;;;;;;;22.67;15.77;;;13.80;99.90;;;;;;5052668;28;20103;-65
2023/04/09 10:15:43;;;;;;;25.00;17.15;;;13.80;99.90;;;;;;5052330;28;20449;-65
2023/04/09 10:18:09;;;;;;;24.23;17.15;;;13.80;99.90;;;;;;5051473;28;20056;-65
2023/04/09 10:20:45;;;;;;;24.83;17.13;;;14.00;99.90;;;;;;5018169;28;20077;-65
2023/04/09 10:23:18;;;;;;;25.90;17.10;;;14.20;99.90;;;;;;5035486;28;20045;-65
2023/04/09 10:25:45;;;;;;;24.92;15.57;;;14.50;99.90;;;;;;5034562;28;20476;-65
2023/04/09 10:28:17;;;;;;;21.90;14.77;;;14.70;99.90;;;;;;5034302;28;20132;-65
2023/04/09 10:30:43;;;;;;;21.95;14.85;;;14.80;99.90;;;;;;5034870;28;20380;-65
2023/04/09 10:33:12;;;;;;;22.15;14.90;;;14.90;99.90;;;;;;5034457;28;20089;-64
2023/04/09 10:35:38;;;;;;;22.45;15.10;;;15.00;99.90;;;;;;5034392;28;20091;-65
2023/04/09 10:38:09;;;;;;;22.38;15.30;;;15.10;99.90;;;;;;5034113;28;20052;-65
2023/04/09 10:41:16;;;;;;;23.60;16.65;;;15.20;99.90;;;;;;5035007;28;20123;-65
2023/04/09 10:43:45;;;;;;;23.20;15.68;;;15.30;99.90;;;;;;5030225;28;20419;-64
2023/04/09 10:46:37;;;;;;;22.83;16.10;;;15.10;99.90;;;;;;5034947;28;20440;-65
2023/04/09 10:49:08;;;;;;;22.80;15.90;;;15.20;99.90;;;;;;5052102;28;20053;-65
2023/04/09 10:51:37;;;;;;;23.73;16.35;;;15.30;99.90;;;;;;5034854;28;20132;-65
2023/04/09 10:54:05;;;;;;;23.20;17.30;;;15.30;99.90;;;;;;5034615;28;20546;-64
2023/04/09 10:56:32;;;;;;;23.58;16.75;;;15.10;99.90;;;;;;5034352;28;20131;-64
2023/04/09 10:58:59;;;;;;;23.35;16.33;;;15.00;99.90;;;;;;5033907;28;20053;-65
2023/04/09 11:01:26;;;;;;;24.13;17.00;;;15.00;99.90;;;;;;5034776;28;20061;-65
2023/04/09 11:04:15;;;;;;;22.65;16.02;;;15.20;99.90;;;;;;5051904;28;20455;-65
2023/04/09 11:06:44;;;;;;;23.00;16.65;;;15.10;99.90;;;;;;5051301;28;20361;-64
2023/04/09 11:09:11;;;;;;;22.83;16.35;;;15.20;99.90;;;;;;5034113;28;20049;-64
2023/04/09 11:11:37;;;;;;;21.02;15.88;;;15.40;99.90;;;;;;5035093;28;20083;-66
2023/04/09 11:14:03;;;;;;;26.35;18.08;;;15.40;99.90;;;;;;5055954;28;20245;-65
2023/04/09 11:16:30;;;;;;;23.67;15.88;;;15.00;99.90;;;;;;5038000;28;20053;-65
2023/04/09 11:18:57;;;;;;;22.42;15.10;;;15.00;99.90;;;;;;5055341;28;20044;-64
2023/04/09 11:21:30;;;;;;;23.02;17.05;;;14.90;99.90;;;;;;5037943;28;20087;-66
2023/04/09 11:23:56;;;;;;;23.20;16.52;;;15.00;99.90;;;;;;5055590;28;20495;-65
2023/04/09 11:26:27;;;;;;;24.50;18.00;;;15.00;99.90;;;;;;5038390;28;20093;-65
2023/04/09 11:28:57;;;;;;;22.85;16.40;;;15.10;99.90;;;;;;5055760;28;20056;-65
2023/04/09 11:31:27;;;;;;;24.90;15.90;;;15.20;99.90;;;;;;5056313;28;20468;-65
2023/04/09 11:33:54;;;;;;;22.08;16.35;;;15.30;99.90;;;;;;5021732;28;20089;-65
2023/04/09 11:36:28;;;;;;;20.80;15.07;;;15.60;99.90;;;;;;5037553;28;20045;-66
2023/04/09 11:38:55;;;;;;;20.85;15.95;;;15.80;99.90;;;;;;5055041;28;20099;-66
2023/04/09 11:41:35;;;;;;;22.20;16.55;;;16.00;99.90;;;;;;5055996;28;20453;-66
2023/04/09 11:44:03;;;;;;;19.77;15.30;;;16.20;99.90;;;;;;5055513;28;20041;-65
2023/04/09 11:46:31;;;;;;;21.45;16.35;;;16.30;99.90;;;;;;5037378;28;20060;-64
2023/04/09 11:48:58;;;;;;;20.42;15.82;;;16.20;99.90;;;;;;5054408;28;20364;-65
2023/04/09 11:51:26;;;;;;;21.52;15.30;;;16.00;99.90;;;;;;5055148;28;20057;-66
2023/04/09 11:53:53;;;;;;;20.60;17.00;;;15.90;99.90;;;;;;5055028;28;20060;-66
2023/04/09 11:56:19;;;;;;;20.40;15.98;;;15.70;99.90;;;;;;5053693;28;20059;-65
2023/04/09 11:58:47;;;;;;;19.48;14.48;;;15.60;99.90;;;;;;5036910;28;20166;-66
2023/04/09 12:01:15;;;;;;;19.70;14.63;;;15.60;99.90;;;;;;5054734;28;20083;-66
2023/04/09 12:03:41;;;;;;;21.13;14.88;;;15.40;99.90;;;;;;5037435;28;20044;-66
2023/04/09 12:06:10;;;;;;;20.25;14.85;;;15.40;99.90;;;;;;5054610;28;20060;-66
2023/04/09 12:08:38;;;;;;;19.73;13.98;;;15.50;99.90;;;;;;5036836;28;20075;-65
2023/04/09 12:11:12;;;;;;;18.55;13.80;;;15.70;99.90;;;;;;5037659;28;20057;-66
2023/04/09 12:13:44;;;;;;;17.45;13.55;;;15.70;99.90;;;;;;5055015;28;20056;-65
2023/04/09 12:16:12;;;;;;;17.90;13.65;;;15.80;99.90;;;;;;5036450;28;20095;-65
2023/04/09 12:18:39;;;;;;;19.98;14.40;;;15.80;99.90;;;;;;5054178;28;20080;-66
2023/04/09 12:21:05;;;;;;;19.52;14.18;;;15.80;99.90;;;;;;5053428;28;20064;-66
2023/04/09 12:23:32;;;;;;;18.88;13.52;;;15.70;99.90;;;;;;5054721;28;20489;-66
2023/04/09 12:26:01;;;;;;;18.80;14.75;;;15.50;99.90;;;;;;5036982;28;20523;-66
2023/04/09 12:28:28;;;;;;;20.20;13.65;;;15.50;99.90;;;;;;5053604;28;20044;-67
2023/04/09 12:30:55;;;;;;;19.50;14.85;;;15.60;99.90;;;;;;5037108;28;20056;-67
2023/04/09 12:33:21;;;;;;;18.50;13.75;;;15.50;99.90;;;;;;5054400;28;20127;-65
2023/04/09 12:35:47;;;;;;;19.23;13.80;;;15.50;99.90;;;;;;5054303;28;20091;-66
2023/04/09 12:38:13;;;;;;;19.70;14.48;;;15.60;99.90;;;;;;5053347;28;20053;-66
2023/04/09 12:40:40;;;;;;;23.10;14.00;;;15.60;99.90;;;;;;5054284;28;20041;-66
2023/04/09 12:43:06;;;;;;;20.80;15.02;;;15.80;99.90;;;;;;5054727;28;20049;-65